createdAt,value
2018-09-08T01:30:25.523Z,101515.37
2018-09-08T01:32:56.693Z,101514.55
2018-09-08T01:35:25.743Z,101516.38
2018-09-08T01:37:54.622Z,101521.65
2018-09-08T01:40:23.425Z,101518.14
2018-09-08T01:42:51.839Z,101514.23
2018-09-08T01:45:20.503Z,101518.66
2018-09-08T01:47:49.038Z,101518.17
2018-09-08T01:50:18.959Z,101522.11
2018-09-08T01:52:49.249Z,101516.44
2018-09-08T01:55:17.841Z,101520.83
2018-09-08T01:57:46.309Z,101521.97
2018-09-08T02:00:14.964Z,101519.81
2018-09-08T02:02:43.727Z,101520.80
2018-09-08T02:05:12.122Z,101519.20
2018-09-08T02:07:41.341Z,101516.94
2018-09-08T02:10:09.886Z,101526.20
2018-09-08T02:12:38.721Z,101526.09
2018-09-08T02:24:01.544Z,101515.59
2018-09-08T03:18:29.524Z,101487.00
2018-09-08T04:21:16.189Z,101521.98
2018-09-08T05:24:08.317Z,101560.70
2018-09-08T07:24:46.493Z,101625.44
2018-09-08T08:24:38.055Z,101626.65
2018-09-08T09:12:49.572Z,101656.04
2018-09-08T09:24:27.770Z,101658.25
2018-09-08T10:12:28.917Z,101684.31
2018-09-08T10:17:51.234Z,101664.76
2018-09-08T10:28:13.221Z,101679.11
2018-09-08T10:30:42.347Z,101701.27
2018-09-08T10:33:10.872Z,101697.61
2018-09-08T10:35:40.265Z,101681.52
2018-09-08T10:38:09.481Z,101679.27
2018-09-08T10:40:37.950Z,101682.64
2018-09-08T10:43:08.141Z,101668.75
2018-09-08T10:45:37.279Z,101686.11
2018-09-08T10:48:05.780Z,101675.05
2018-09-08T10:50:34.210Z,101700.63
2018-09-08T10:53:02.664Z,101680.63
2018-09-08T10:55:31.091Z,101688.82
2018-09-08T10:58:10.590Z,101704.19
2018-09-08T11:00:38.938Z,101691.44
2018-09-08T11:03:07.616Z,101701.30
2018-09-08T11:05:37.388Z,101687.39
2018-09-08T11:08:05.756Z,101692.10
2018-09-08T11:10:34.239Z,101692.79
2018-09-08T11:13:03.044Z,101704.11
2018-09-08T11:15:33.763Z,101706.17
2018-09-08T12:13:20.025Z,101723.75
2018-09-08T12:15:48.893Z,101718.23
2018-09-08T14:26:42.356Z,101749.77
2018-09-08T14:29:12.620Z,101753.06
2018-09-08T14:31:43.554Z,101755.96
2018-09-08T14:34:12.109Z,101751.81
2018-09-08T14:36:40.685Z,101750.34
2018-09-08T14:39:10.030Z,101751.23
2018-09-08T14:41:39.045Z,101749.05
2018-09-08T14:44:07.826Z,101762.19
2018-09-08T14:46:36.715Z,101753.38
2018-09-08T14:49:05.617Z,101754.44
2018-09-08T14:51:34.580Z,101740.14
2018-09-08T14:54:03.121Z,101733.33
2018-09-08T14:56:32.506Z,101734.08
2018-09-08T14:59:02.560Z,101735.28
2018-09-08T15:01:31.099Z,101751.00
2018-09-08T15:03:59.612Z,101729.79
2018-09-08T15:06:28.186Z,101739.57
2018-09-08T15:08:56.724Z,101737.32
2018-09-08T15:11:25.538Z,101754.83
2018-09-08T15:22:36.501Z,101742.30
2018-09-08T15:25:06.544Z,101748.03
2018-09-08T15:27:37.498Z,101751.41
2018-09-08T15:30:07.699Z,101750.90
2018-09-08T15:35:40.245Z,101756.27
2018-09-08T15:38:10.111Z,101758.34
2018-09-08T15:40:42.371Z,101758.04
2018-09-08T15:43:13.081Z,101745.49
2018-09-08T15:45:41.636Z,101749.39
2018-09-08T15:48:12.771Z,101755.03
2018-09-08T16:04:26.197Z,101744.26
2018-09-08T17:16:00.017Z,101767.17
2018-09-08T17:19:08.811Z,101773.97
2018-09-08T17:38:41.116Z,101787.13
2018-09-08T17:41:09.476Z,101787.98
2018-09-08T17:43:37.796Z,101790.86
2018-09-08T17:46:06.205Z,101796.99
2018-09-08T21:19:58.548Z,101903.58
2018-09-08T23:18:06.019Z,101896.88
